Minerva Astra — 9HDW7 — position and weather

sailwx.info

Track history (hours):
 
Tides and Currents Weather Stations Pressure Air Temp Water Temp Dewpoint Dewpoint Depression Visibility Wind Speed Wind Dir Waves Ship Positions

Minerva Astra

Last reported at 2016-May-19 04:33 UTC. Time now 2016-May-26 14:32 UTC.
Position N 40°54' E 028°60'.

Length 248 m; draft 8.5 m.

Type: Tanker. MMSI: 256703000.

Date/timePositionNaut miles runAvg speedWind from/ knotsBaromVisibWave heightAir tempDewpointWater temp
2016-May-19 04:33N 40°54' E 028°60'5 4.6
2016-May-19 03:33N 40°50' E 028°58'0 0.4
2016-May-19 02:28N 40°50' E 028°58'3 2.8
2016-May-19 01:33N 40°49' E 028°55'10 9.6
2016-May-19 00:31N 40°45' E 028°43'24910.0
2016-May-17 23:33N 38°01' E 024°41'1111.5
2016-May-17 22:33N 37°52' E 024°33'1211.8
2016-May-17 21:33N 37°45' E 024°21'1111.4
2016-May-17 20:33N 37°37' E 024°10'1110.9
2016-May-17 19:33N 37°34' E 023°57'1211.9
2016-May-17 18:33N 37°39' E 023°43'1211.6
2016-May-17 17:33N 37°49' E 023°36'7 6.7
2016-May-17 16:33N 37°52' E 023°28'0 0.0
2016-May-17 15:33N 37°52' E 023°29'0 0.1
2016-May-17 14:33N 37°52' E 023°29'0 0.0
2016-May-17 13:33N 37°52' E 023°29'0 0.0
2016-May-17 12:33N 37°52' E 023°29'0 0.0
2016-May-17 11:33N 37°52' E 023°29'0 0.0
2016-May-17 10:33N 37°52' E 023°29'0 0.0
2016-May-17 09:33N 37°52' E 023°29'0 0.0
2016-May-17 08:33N 37°52' E 023°29'0 0.0
2016-May-17 07:33N 37°52' E 023°29'0 0.1
2016-May-17 06:33N 37°52' E 023°29'0 0.0
2016-May-17 05:30N 37°52' E 023°29'0 0.0
2016-May-17 04:33N 37°52' E 023°29'0 0.0
2016-May-17 03:33N 37°52' E 023°29'0 0.0
2016-May-17 02:33N 37°52' E 023°29'0 0.0
2016-May-17 01:33N 37°52' E 023°29'0 0.0
2016-May-17 00:33N 37°52' E 023°29'0 0.0
2016-May-16 23:33N 37°52' E 023°29'0 0.0
2016-May-16 22:33N 37°52' E 023°29'0 0.0
2016-May-16 21:30N 37°52' E 023°29'0 0.0
2016-May-16 20:33N 37°52' E 023°29'0 0.1
2016-May-16 19:33N 37°52' E 023°29'0 0.0
2016-May-16 18:33N 37°52' E 023°29'0 0.0
2016-May-16 17:33N 37°52' E 023°29'0 0.1
2016-May-16 16:33N 37°52' E 023°29'0 0.0
2016-May-16 15:33N 37°52' E 023°29'0 0.0
2016-May-16 14:33N 37°52' E 023°29'0 0.0
2016-May-16 13:33N 37°52' E 023°29'0 0.0
2016-May-16 12:33N 37°52' E 023°29'0 0.0
2016-May-16 11:33N 37°52' E 023°29'0 0.0
2016-May-16 10:33N 37°52' E 023°29'0 0.0
2016-May-16 09:33N 37°52' E 023°29'0 0.0
2016-May-16 08:32N 37°52' E 023°29'0 0.0
2016-May-16 07:31N 37°52' E 023°29'0 0.0
2016-May-16 06:31N 37°52' E 023°29'0 0.0
2016-May-16 05:31N 37°52' E 023°29'0 0.0
2016-May-16 04:31N 37°52' E 023°29'0 0.0
2016-May-16 03:28N 37°52' E 023°29'0 0.0
2016-May-16 02:31N 37°52' E 023°29'0 0.0
2016-May-16 01:31N 37°52' E 023°29'0 0.0
2016-May-16 00:31N 37°52' E 023°29'0 0.1
2016-May-15 23:31N 37°52' E 023°29'0 0.1
2016-May-15 22:31N 37°52' E 023°29'0 0.0
2016-May-15 21:31N 37°52' E 023°29'0 0.0
2016-May-15 20:31N 37°52' E 023°29'0 0.0
2016-May-15 19:31N 37°52' E 023°29'0 0.0
2016-May-15 18:31N 37°52' E 023°29'0 0.2
2016-May-15 17:31N 37°52' E 023°29'0 0.2
2016-May-15 16:31N 37°52' E 023°28'0 0.0
2016-May-15 15:31N 37°52' E 023°28'0 0.0
2016-May-15 14:31N 37°52' E 023°28'0 0.1
2016-May-15 13:31N 37°52' E 023°28'0 0.1
2016-May-15 12:31N 37°52' E 023°29'0 0.1
2016-May-15 11:31N 37°52' E 023°29'0 0.0
2016-May-15 10:25N 37°52' E 023°29'0 0.0
2016-May-15 09:31N 37°52' E 023°29'0 0.0
2016-May-15 08:31N 37°52' E 023°29'0 0.1
2016-May-15 07:31N 37°52' E 023°29'0 0.1
2016-May-15 06:31N 37°52' E 023°29'0 0.0
2016-May-15 05:31N 37°52' E 023°29'0 0.0
2016-May-15 04:28N 37°52' E 023°29'0 0.0
2016-May-15 03:31N 37°52' E 023°29'0 0.0
2016-May-15 02:31N 37°52' E 023°29'0 0.2
2016-May-15 01:31N 37°52' E 023°28'0 0.0
2016-May-15 00:31N 37°52' E 023°28'0 0.0
2016-May-14 23:31N 37°52' E 023°28'0 0.0
2016-May-14 22:31N 37°52' E 023°28'0 0.0
2016-May-14 21:31N 37°52' E 023°28'0 0.0
2016-May-14 20:31N 37°52' E 023°28'0 0.0
2016-May-14 19:31N 37°52' E 023°28'0 0.0
2016-May-14 18:31N 37°52' E 023°28'0 0.0
2016-May-14 17:31N 37°52' E 023°28'0 0.0
2016-May-14 16:31N 37°52' E 023°28'0 0.1
2016-May-14 15:31N 37°52' E 023°28'0 0.0
2016-May-14 14:31N 37°52' E 023°28'0 0.1
2016-May-14 13:31N 37°52' E 023°28'0 0.0
2016-May-14 12:31N 37°52' E 023°28'0 0.0
2016-May-14 11:31N 37°52' E 023°28'0 0.1
2016-May-14 10:31N 37°52' E 023°28'0 0.1
2016-May-14 09:31N 37°52' E 023°28'0 0.0
2016-May-14 08:31N 37°52' E 023°28'0 0.2
2016-May-14 07:31N 37°52' E 023°29'0 0.0
2016-May-14 06:33N 37°52' E 023°29'0 0.0
2016-May-14 05:33N 37°52' E 023°29'0 0.0
2016-May-14 04:33N 37°52' E 023°29'0 0.0
2016-May-14 03:33N 37°52' E 023°29'0 0.1
2016-May-14 02:33N 37°52' E 023°29'0 0.1
2016-May-14 01:33N 37°52' E 023°29'0 0.1
2016-May-14 00:33N 37°52' E 023°29'0 0.1
2016-May-13 23:33N 37°52' E 023°29'0 0.1
2016-May-13 22:33N 37°52' E 023°29'0 0.0
2016-May-13 21:30N 37°52' E 023°29'0 0.0
2016-May-13 20:33N 37°52' E 023°29'0 0.0
2016-May-13 19:33N 37°52' E 023°29'0 0.0
2016-May-13 18:33N 37°52' E 023°29'0 0.0
2016-May-13 17:33N 37°52' E 023°29'0 0.0
2016-May-13 16:33N 37°52' E 023°29'0 0.0
2016-May-13 15:33N 37°52' E 023°29'0 0.0
2016-May-13 14:33N 37°52' E 023°29'0 0.0
2016-May-13 13:33N 37°52' E 023°29'0 0.0
2016-May-13 12:33N 37°52' E 023°29'0 0.0
2016-May-13 11:33N 37°52' E 023°29'0 0.0
2016-May-13 10:33N 37°52' E 023°29'0 0.0
2016-May-13 09:33N 37°52' E 023°29'0 0.0
2016-May-13 08:33N 37°52' E 023°29'0 0.1
2016-May-13 07:33N 37°52' E 023°29'0 0.1
2016-May-13 06:33N 37°52' E 023°28'0 0.1
2016-May-13 05:33N 37°52' E 023°28'0 0.0
2016-May-13 04:33N 37°52' E 023°28'0 0.0
2016-May-13 03:33N 37°52' E 023°28'0 0.0
2016-May-13 02:33N 37°52' E 023°28'0 0.0
2016-May-13 01:33N 37°52' E 023°28'0 0.0
2016-May-13 00:33N 37°52' E 023°28'0 0.0
2016-May-12 23:33N 37°52' E 023°28'0 0.0
2016-May-12 22:33N 37°52' E 023°28'0 0.0
2016-May-12 21:33N 37°52' E 023°28'0 0.0
2016-May-12 20:33N 37°52' E 023°28'0 0.0
2016-May-12 19:33N 37°52' E 023°28'0 0.0
2016-May-12 18:30N 37°52' E 023°28'0 0.0
2016-May-12 17:33N 37°52' E 023°28'0 0.0
2016-May-12 16:33N 37°52' E 023°28'0 0.0
2016-May-12 15:33N 37°52' E 023°28'0 0.0
2016-May-12 14:33N 37°52' E 023°28'0 0.0
2016-May-12 13:33N 37°52' E 023°28'0 0.0
2016-May-12 12:33N 37°52' E 023°28'0 0.0
2016-May-12 11:33N 37°52' E 023°28'0 0.0
2016-May-12 10:33N 37°52' E 023°28'0 0.0
2016-May-12 09:33N 37°52' E 023°28'0 0.0
2016-May-12 08:33N 37°52' E 023°28'0 0.0
2016-May-12 07:33N 37°52' E 023°28'0 0.0
2016-May-12 06:33N 37°52' E 023°28'0 0.0
2016-May-12 05:33N 37°52' E 023°28'0 0.0
2016-May-12 04:33N 37°52' E 023°28'0 0.0
2016-May-12 03:33N 37°52' E 023°28'0 0.0
2016-May-12 02:33N 37°52' E 023°28'0 0.0
2016-May-12 01:33N 37°52' E 023°28'0 0.0
2016-May-12 00:33N 37°52' E 023°28'0 0.0
2016-May-11 23:33N 37°52' E 023°28'0 0.1
2016-May-11 22:33N 37°52' E 023°28'0 0.0
2016-May-11 21:33N 37°52' E 023°28'0 0.0
2016-May-11 20:33N 37°52' E 023°28'0 0.1
2016-May-11 19:33N 37°52' E 023°28'0 0.1
2016-May-11 18:33N 37°52' E 023°28'0 0.0
2016-May-11 17:33N 37°52' E 023°28'0 0.0
2016-May-11 16:33N 37°52' E 023°28'0 0.0
2016-May-11 15:33N 37°52' E 023°28'0 0.0
2016-May-11 14:33N 37°52' E 023°28'0 0.0
2016-May-11 13:33N 37°52' E 023°28'0 0.0
2016-May-11 12:33N 37°52' E 023°28'0 0.0
2016-May-11 11:33N 37°52' E 023°28'0 0.0
2016-May-11 10:33N 37°52' E 023°28'0 0.0
2016-May-11 09:33N 37°52' E 023°28'0 0.0
2016-May-11 08:33N 37°52' E 023°28'0 0.0
2016-May-11 07:33N 37°52' E 023°28'0 0.0
2016-May-11 06:33N 37°52' E 023°28'0 0.1
2016-May-11 05:33N 37°52' E 023°28'1 1.5
2016-May-11 04:33N 37°50' E 023°29'5 5.0
2016-May-11 03:33N 37°50' E 023°35'8 8.5
2016-May-11 02:33N 37°44' E 023°43'1110.8
2016-May-11 01:33N 37°34' E 023°45'1211.6
2016-May-11 00:33N 37°22' E 023°42'1111.2
2016-May-10 23:33N 37°11' E 023°42'1111.3
2016-May-10 22:33N 36°60' E 023°40'1111.1
2016-May-10 21:33N 36°50' E 023°34'1211.5
2016-May-10 20:33N 36°40' E 023°27'1211.5
2016-May-10 19:33N 36°30' E 023°20'  
Track history (hours):
 
Tides and Currents Weather Stations Pressure Air Temp Water Temp Dewpoint Dewpoint Depression Visibility Wind Speed Wind Dir Waves Ship Positions

Minerva Astra

Last reported at 2016-May-19 04:33 UTC. Time now 2016-May-26 14:32 UTC.
Position N 40°54' E 028°60'.

Length 248 m; draft 8.5 m.

Type: Tanker. MMSI: 256703000.

Date/timePositionNaut miles runAvg speedWind from/ knotsBaromVisibWave heightAir tempDewpointWater temp
2016-May-19 04:33N 40°54' E 028°60'5 4.6
2016-May-19 03:33N 40°50' E 028°58'0 0.4
2016-May-19 02:28N 40°50' E 028°58'3 2.8
2016-May-19 01:33N 40°49' E 028°55'10 9.6
2016-May-19 00:31N 40°45' E 028°43'24910.0
2016-May-17 23:33N 38°01' E 024°41'1111.5
2016-May-17 22:33N 37°52' E 024°33'1211.8
2016-May-17 21:33N 37°45' E 024°21'1111.4
2016-May-17 20:33N 37°37' E 024°10'1110.9
2016-May-17 19:33N 37°34' E 023°57'1211.9
2016-May-17 18:33N 37°39' E 023°43'1211.6
2016-May-17 17:33N 37°49' E 023°36'7 6.7
2016-May-17 16:33N 37°52' E 023°28'0 0.0
2016-May-17 15:33N 37°52' E 023°29'0 0.1
2016-May-17 14:33N 37°52' E 023°29'0 0.0
2016-May-17 13:33N 37°52' E 023°29'0 0.0
2016-May-17 12:33N 37°52' E 023°29'0 0.0
2016-May-17 11:33N 37°52' E 023°29'0 0.0
2016-May-17 10:33N 37°52' E 023°29'0 0.0
2016-May-17 09:33N 37°52' E 023°29'0 0.0
2016-May-17 08:33N 37°52' E 023°29'0 0.0
2016-May-17 07:33N 37°52' E 023°29'0 0.1
2016-May-17 06:33N 37°52' E 023°29'0 0.0
2016-May-17 05:30N 37°52' E 023°29'0 0.0
2016-May-17 04:33N 37°52' E 023°29'0 0.0
2016-May-17 03:33N 37°52' E 023°29'0 0.0
2016-May-17 02:33N 37°52' E 023°29'0 0.0
2016-May-17 01:33N 37°52' E 023°29'0 0.0
2016-May-17 00:33N 37°52' E 023°29'0 0.0
2016-May-16 23:33N 37°52' E 023°29'0 0.0
2016-May-16 22:33N 37°52' E 023°29'0 0.0
2016-May-16 21:30N 37°52' E 023°29'0 0.0
2016-May-16 20:33N 37°52' E 023°29'0 0.1
2016-May-16 19:33N 37°52' E 023°29'0 0.0
2016-May-16 18:33N 37°52' E 023°29'0 0.0
2016-May-16 17:33N 37°52' E 023°29'0 0.1
2016-May-16 16:33N 37°52' E 023°29'0 0.0
2016-May-16 15:33N 37°52' E 023°29'0 0.0
2016-May-16 14:33N 37°52' E 023°29'0 0.0
2016-May-16 13:33N 37°52' E 023°29'0 0.0
2016-May-16 12:33N 37°52' E 023°29'0 0.0
2016-May-16 11:33N 37°52' E 023°29'0 0.0
2016-May-16 10:33N 37°52' E 023°29'0 0.0
2016-May-16 09:33N 37°52' E 023°29'0 0.0
2016-May-16 08:32N 37°52' E 023°29'0 0.0
2016-May-16 07:31N 37°52' E 023°29'0 0.0
2016-May-16 06:31N 37°52' E 023°29'0 0.0
2016-May-16 05:31N 37°52' E 023°29'0 0.0
2016-May-16 04:31N 37°52' E 023°29'0 0.0
2016-May-16 03:28N 37°52' E 023°29'0 0.0
2016-May-16 02:31N 37°52' E 023°29'0 0.0
2016-May-16 01:31N 37°52' E 023°29'0 0.0
2016-May-16 00:31N 37°52' E 023°29'0 0.1
2016-May-15 23:31N 37°52' E 023°29'0 0.1
2016-May-15 22:31N 37°52' E 023°29'0 0.0
2016-May-15 21:31N 37°52' E 023°29'0 0.0
2016-May-15 20:31N 37°52' E 023°29'0 0.0
2016-May-15 19:31N 37°52' E 023°29'0 0.0
2016-May-15 18:31N 37°52' E 023°29'0 0.2
2016-May-15 17:31N 37°52' E 023°29'0 0.2
2016-May-15 16:31N 37°52' E 023°28'0 0.0
2016-May-15 15:31N 37°52' E 023°28'0 0.0
2016-May-15 14:31N 37°52' E 023°28'0 0.1
2016-May-15 13:31N 37°52' E 023°28'0 0.1
2016-May-15 12:31N 37°52' E 023°29'0 0.1
2016-May-15 11:31N 37°52' E 023°29'0 0.0
2016-May-15 10:25N 37°52' E 023°29'0 0.0
2016-May-15 09:31N 37°52' E 023°29'0 0.0
2016-May-15 08:31N 37°52' E 023°29'0 0.1
2016-May-15 07:31N 37°52' E 023°29'0 0.1
2016-May-15 06:31N 37°52' E 023°29'0 0.0
2016-May-15 05:31N 37°52' E 023°29'0 0.0
2016-May-15 04:28N 37°52' E 023°29'0 0.0
2016-May-15 03:31N 37°52' E 023°29'0 0.0
2016-May-15 02:31N 37°52' E 023°29'0 0.2
2016-May-15 01:31N 37°52' E 023°28'0 0.0
2016-May-15 00:31N 37°52' E 023°28'0 0.0
2016-May-14 23:31N 37°52' E 023°28'0 0.0
2016-May-14 22:31N 37°52' E 023°28'0 0.0
2016-May-14 21:31N 37°52' E 023°28'0 0.0
2016-May-14 20:31N 37°52' E 023°28'0 0.0
2016-May-14 19:31N 37°52' E 023°28'0 0.0
2016-May-14 18:31N 37°52' E 023°28'0 0.0
2016-May-14 17:31N 37°52' E 023°28'0 0.0
2016-May-14 16:31N 37°52' E 023°28'0 0.1
2016-May-14 15:31N 37°52' E 023°28'0 0.0
2016-May-14 14:31N 37°52' E 023°28'0 0.1
2016-May-14 13:31N 37°52' E 023°28'0 0.0
2016-May-14 12:31N 37°52' E 023°28'0 0.0
2016-May-14 11:31N 37°52' E 023°28'0 0.1
2016-May-14 10:31N 37°52' E 023°28'0 0.1
2016-May-14 09:31N 37°52' E 023°28'0 0.0
2016-May-14 08:31N 37°52' E 023°28'0 0.2
2016-May-14 07:31N 37°52' E 023°29'0 0.0
2016-May-14 06:33N 37°52' E 023°29'0 0.0
2016-May-14 05:33N 37°52' E 023°29'0 0.0
2016-May-14 04:33N 37°52' E 023°29'0 0.0
2016-May-14 03:33N 37°52' E 023°29'0 0.1
2016-May-14 02:33N 37°52' E 023°29'0 0.1
2016-May-14 01:33N 37°52' E 023°29'0 0.1
2016-May-14 00:33N 37°52' E 023°29'0 0.1
2016-May-13 23:33N 37°52' E 023°29'0 0.1
2016-May-13 22:33N 37°52' E 023°29'0 0.0
2016-May-13 21:30N 37°52' E 023°29'0 0.0
2016-May-13 20:33N 37°52' E 023°29'0 0.0
2016-May-13 19:33N 37°52' E 023°29'0 0.0
2016-May-13 18:33N 37°52' E 023°29'0 0.0
2016-May-13 17:33N 37°52' E 023°29'0 0.0
2016-May-13 16:33N 37°52' E 023°29'0 0.0
2016-May-13 15:33N 37°52' E 023°29'0 0.0
2016-May-13 14:33N 37°52' E 023°29'0 0.0
2016-May-13 13:33N 37°52' E 023°29'0 0.0
2016-May-13 12:33N 37°52' E 023°29'0 0.0
2016-May-13 11:33N 37°52' E 023°29'0 0.0
2016-May-13 10:33N 37°52' E 023°29'0 0.0
2016-May-13 09:33N 37°52' E 023°29'0 0.0
2016-May-13 08:33N 37°52' E 023°29'0 0.1
2016-May-13 07:33N 37°52' E 023°29'0 0.1
2016-May-13 06:33N 37°52' E 023°28'0 0.1
2016-May-13 05:33N 37°52' E 023°28'0 0.0
2016-May-13 04:33N 37°52' E 023°28'0 0.0
2016-May-13 03:33N 37°52' E 023°28'0 0.0
2016-May-13 02:33N 37°52' E 023°28'0 0.0
2016-May-13 01:33N 37°52' E 023°28'0 0.0
2016-May-13 00:33N 37°52' E 023°28'0 0.0
2016-May-12 23:33N 37°52' E 023°28'0 0.0
2016-May-12 22:33N 37°52' E 023°28'0 0.0
2016-May-12 21:33N 37°52' E 023°28'0 0.0
2016-May-12 20:33N 37°52' E 023°28'0 0.0
2016-May-12 19:33N 37°52' E 023°28'0 0.0
2016-May-12 18:30N 37°52' E 023°28'0 0.0
2016-May-12 17:33N 37°52' E 023°28'0 0.0
2016-May-12 16:33N 37°52' E 023°28'0 0.0
2016-May-12 15:33N 37°52' E 023°28'0 0.0
2016-May-12 14:33N 37°52' E 023°28'0 0.0
2016-May-12 13:33N 37°52' E 023°28'0 0.0
2016-May-12 12:33N 37°52' E 023°28'0 0.0
2016-May-12 11:33N 37°52' E 023°28'0 0.0
2016-May-12 10:33N 37°52' E 023°28'0 0.0
2016-May-12 09:33N 37°52' E 023°28'0 0.0
2016-May-12 08:33N 37°52' E 023°28'0 0.0
2016-May-12 07:33N 37°52' E 023°28'0 0.0
2016-May-12 06:33N 37°52' E 023°28'0 0.0
2016-May-12 05:33N 37°52' E 023°28'0 0.0
2016-May-12 04:33N 37°52' E 023°28'0 0.0
2016-May-12 03:33N 37°52' E 023°28'0 0.0
2016-May-12 02:33N 37°52' E 023°28'0 0.0
2016-May-12 01:33N 37°52' E 023°28'0 0.0
2016-May-12 00:33N 37°52' E 023°28'0 0.0
2016-May-11 23:33N 37°52' E 023°28'0 0.1
2016-May-11 22:33N 37°52' E 023°28'0 0.0
2016-May-11 21:33N 37°52' E 023°28'0 0.0
2016-May-11 20:33N 37°52' E 023°28'0 0.1
2016-May-11 19:33N 37°52' E 023°28'0 0.1
2016-May-11 18:33N 37°52' E 023°28'0 0.0
2016-May-11 17:33N 37°52' E 023°28'0 0.0
2016-May-11 16:33N 37°52' E 023°28'0 0.0
2016-May-11 15:33N 37°52' E 023°28'0 0.0
2016-May-11 14:33N 37°52' E 023°28'0 0.0
2016-May-11 13:33N 37°52' E 023°28'0 0.0
2016-May-11 12:33N 37°52' E 023°28'0 0.0
2016-May-11 11:33N 37°52' E 023°28'0 0.0
2016-May-11 10:33N 37°52' E 023°28'0 0.0
2016-May-11 09:33N 37°52' E 023°28'0 0.0
2016-May-11 08:33N 37°52' E 023°28'0 0.0
2016-May-11 07:33N 37°52' E 023°28'0 0.0
2016-May-11 06:33N 37°52' E 023°28'0 0.1
2016-May-11 05:33N 37°52' E 023°28'1 1.5
2016-May-11 04:33N 37°50' E 023°29'5 5.0
2016-May-11 03:33N 37°50' E 023°35'8 8.5
2016-May-11 02:33N 37°44' E 023°43'1110.8
2016-May-11 01:33N 37°34' E 023°45'1211.6
2016-May-11 00:33N 37°22' E 023°42'1111.2
2016-May-10 23:33N 37°11' E 023°42'1111.3
2016-May-10 22:33N 36°60' E 023°40'1111.1
2016-May-10 21:33N 36°50' E 023°34'1211.5
2016-May-10 20:33N 36°40' E 023°27'1211.5
2016-May-10 19:33N 36°30' E 023°20'  

Dump ship's entire track history